createdAt,value
2023-05-13T00:01:53.751Z,7.53
2023-05-13T00:04:20.723Z,8.00
2023-05-13T00:06:47.779Z,10.02
2023-05-13T00:09:14.720Z,10.95
2023-05-13T00:11:41.590Z,10.75
2023-05-13T00:14:11.074Z,11.20
2023-05-13T00:16:38.199Z,8.73
2023-05-13T00:19:05.175Z,8.48
2023-05-13T00:21:32.502Z,8.68
2023-05-13T00:23:59.606Z,9.05
2023-05-13T00:26:26.730Z,9.82
2023-05-13T00:28:53.843Z,6.50
2023-05-13T00:31:20.856Z,7.10
2023-05-13T00:33:47.949Z,6.68
2023-05-13T00:36:15.052Z,7.15
2023-05-13T00:38:44.252Z,6.75
2023-05-13T00:41:12.353Z,6.57
2023-05-13T00:43:39.258Z,6.13
2023-05-13T00:46:06.531Z,6.13
2023-05-13T00:48:34.259Z,5.95
2023-05-13T00:51:01.392Z,6.47
2023-05-13T00:53:28.435Z,6.45
2023-05-13T00:55:55.998Z,6.38
2023-05-13T00:58:23.001Z,5.88
2023-05-13T01:00:56.478Z,6.70
2023-05-13T01:03:58.291Z,6.38
2023-05-13T01:06:50.000Z,6.85
2023-05-13T01:09:55.457Z,5.75
2023-05-13T01:12:31.566Z,6.22
2023-05-13T01:15:06.600Z,6.65
2023-05-13T01:17:37.566Z,7.05
2023-05-13T01:20:05.377Z,7.07
2023-05-13T01:22:32.630Z,7.80
2023-05-13T01:25:00.020Z,6.63
2023-05-13T01:27:27.636Z,6.70
2023-05-13T01:29:56.973Z,7.53
2023-05-13T01:32:28.449Z,6.70
2023-05-13T01:34:56.705Z,7.05
2023-05-13T01:37:24.011Z,6.88
2023-05-13T01:39:52.076Z,8.00
2023-05-13T01:42:19.275Z,7.70
2023-05-13T01:44:46.800Z,7.00
2023-05-13T01:47:14.064Z,7.50
2023-05-13T01:49:41.005Z,7.60
2023-05-13T01:52:08.024Z,7.70
2023-05-13T01:54:35.185Z,6.90
2023-05-13T01:57:06.684Z,9.85
2023-05-13T01:59:33.608Z,6.82
2023-05-13T02:02:00.540Z,6.85
2023-05-13T02:04:27.891Z,7.43
2023-05-13T02:06:54.830Z,7.13
2023-05-13T02:09:22.267Z,6.75
2023-05-13T02:11:49.206Z,7.70
2023-05-13T02:14:16.397Z,8.07
2023-05-13T02:16:43.498Z,8.15
2023-05-13T02:19:10.652Z,7.82
2023-05-13T02:21:37.665Z,8.82
2023-05-13T02:24:07.452Z,9.40
2023-05-13T02:26:34.384Z,9.40
2023-05-13T02:29:01.878Z,11.65
2023-05-13T02:31:29.644Z,8.55
2023-05-13T02:33:56.603Z,8.02
2023-05-13T02:36:23.598Z,10.25
2023-05-13T02:38:50.622Z,8.55
2023-05-13T02:41:17.812Z,8.57
2023-05-13T02:43:44.727Z,8.68
2023-05-13T02:46:11.927Z,9.40
2023-05-13T02:48:38.906Z,9.05
2023-05-13T02:51:05.961Z,9.05
2023-05-13T02:53:33.011Z,8.65
2023-05-13T02:56:03.928Z,9.80
2023-05-13T02:58:30.943Z,9.77
2023-05-13T03:00:59.101Z,8.93
2023-05-13T03:03:26.500Z,12.80
2023-05-13T03:05:53.430Z,11.13
2023-05-13T03:08:20.416Z,10.73
2023-05-13T03:10:47.371Z,10.25
2023-05-13T03:13:14.404Z,10.73
2023-05-13T03:15:44.455Z,9.55
2023-05-13T03:18:12.193Z,9.10
2023-05-13T03:20:39.293Z,8.25
2023-05-13T03:23:06.273Z,8.20
2023-05-13T03:25:34.230Z,8.05
2023-05-13T03:28:04.134Z,8.07
2023-05-13T03:30:35.662Z,7.88
2023-05-13T03:33:07.116Z,8.30
2023-05-13T03:35:34.699Z,9.68
2023-05-13T03:38:01.908Z,8.45
2023-05-13T03:40:28.871Z,9.07
2023-05-13T03:42:56.420Z,8.30
2023-05-13T03:45:24.401Z,8.55
2023-05-13T03:47:53.886Z,8.52
2023-05-13T03:50:23.685Z,9.07
2023-05-13T03:52:52.319Z,8.25
2023-05-13T03:55:20.761Z,8.38
2023-05-13T03:57:49.581Z,11.75
2023-05-13T04:00:18.971Z,7.50
2023-05-13T04:02:48.108Z,8.60
2023-05-13T04:05:15.546Z,8.27
2023-05-13T04:07:42.522Z,8.88
2023-05-13T04:10:13.048Z,7.90
2023-05-13T04:12:41.713Z,8.13
2023-05-13T04:15:08.987Z,8.57
2023-05-13T04:17:35.924Z,8.32
2023-05-13T04:20:03.169Z,10.48
2023-05-13T04:22:30.610Z,9.43
2023-05-13T04:24:57.585Z,9.38
2023-05-13T04:27:24.923Z,9.68
2023-05-13T04:29:57.552Z,10.20
2023-05-13T04:32:25.949Z,14.43
2023-05-13T04:34:55.304Z,11.85
2023-05-13T04:37:24.597Z,14.38
2023-05-13T04:39:54.448Z,13.02
2023-05-13T04:42:23.869Z,15.82
2023-05-13T04:44:50.855Z,13.98
2023-05-13T04:47:17.815Z,16.20
2023-05-13T04:49:44.852Z,15.30
2023-05-13T04:52:13.420Z,16.35
2023-05-13T04:54:41.145Z,15.30
2023-05-13T04:57:08.721Z,14.55
2023-05-13T04:59:36.361Z,14.32
2023-05-13T05:02:03.686Z,14.40
2023-05-13T05:04:30.976Z,14.00
2023-05-13T05:06:58.159Z,13.55
2023-05-13T05:09:25.134Z,15.50
2023-05-13T05:11:53.317Z,14.25
2023-05-13T05:14:23.088Z,14.48
2023-05-13T05:16:50.859Z,13.23
2023-05-13T05:19:18.089Z,13.48
2023-05-13T05:21:45.248Z,13.48
2023-05-13T05:24:13.609Z,13.45
2023-05-13T05:26:42.295Z,13.85
2023-05-13T05:29:10.129Z,13.02
2023-05-13T05:31:37.191Z,12.57
2023-05-13T05:34:04.686Z,13.85
2023-05-13T05:36:32.354Z,13.13
2023-05-13T05:38:59.515Z,12.82
2023-05-13T05:41:33.064Z,11.85
2023-05-13T05:44:00.219Z,12.35
2023-05-13T05:46:27.371Z,12.48
2023-05-13T05:48:55.051Z,12.50
2023-05-13T05:51:22.423Z,13.48
2023-05-13T05:53:49.779Z,12.50
2023-05-13T05:56:17.228Z,14.00
2023-05-13T05:58:45.561Z,13.00
2023-05-13T06:01:12.470Z,12.75
2023-05-13T06:03:39.640Z,13.40
2023-05-13T06:06:06.845Z,12.40
2023-05-13T06:08:34.337Z,13.20
2023-05-13T06:11:01.448Z,13.20
2023-05-13T06:13:28.491Z,12.93
2023-05-13T06:15:55.636Z,14.98
2023-05-13T06:18:23.056Z,14.05
2023-05-13T06:20:50.122Z,13.25
2023-05-13T06:23:18.779Z,13.05
2023-05-13T06:25:45.953Z,13.07
2023-05-13T06:28:13.100Z,13.05
2023-05-13T06:30:40.029Z,13.55
2023-05-13T06:33:08.500Z,13.50
2023-05-13T06:38:06.280Z,12.82
2023-05-13T06:40:34.145Z,13.45
2023-05-13T06:43:01.202Z,13.90
2023-05-13T06:45:36.925Z,13.95
2023-05-13T06:48:04.462Z,15.27
2023-05-13T06:50:31.405Z,15.13
2023-05-13T06:52:58.860Z,15.88
2023-05-13T06:55:25.947Z,17.05
2023-05-13T06:57:53.377Z,17.40
2023-05-13T07:00:20.793Z,16.85
2023-05-13T07:02:48.035Z,16.27
2023-05-13T07:05:14.966Z,15.85
2023-05-13T07:07:43.507Z,17.08
2023-05-13T07:10:10.799Z,16.27
2023-05-13T07:12:37.832Z,14.90
2023-05-13T07:15:05.619Z,15.65
2023-05-13T07:17:32.735Z,15.68
2023-05-13T07:19:59.862Z,16.13
2023-05-13T07:22:27.408Z,16.38
2023-05-13T07:24:55.295Z,16.98
2023-05-13T07:27:22.309Z,15.90
2023-05-13T07:29:49.272Z,15.80
2023-05-13T07:32:16.273Z,15.32
2023-05-13T07:34:43.189Z,15.18
2023-05-13T07:37:10.231Z,16.88
2023-05-13T07:39:37.167Z,13.32
2023-05-13T07:42:04.390Z,13.93
2023-05-13T07:44:31.294Z,13.10
2023-05-13T07:46:58.258Z,13.00
2023-05-13T07:49:25.290Z,13.02
2023-05-13T07:51:52.307Z,12.95
2023-05-13T07:54:19.277Z,11.35
2023-05-13T07:56:48.143Z,10.70
2023-05-13T07:59:15.212Z,10.32
2023-05-13T08:01:43.027Z,9.73
2023-05-13T08:04:10.348Z,9.15
2023-05-13T08:06:37.574Z,7.93
2023-05-13T08:09:04.673Z,7.65
2023-05-13T08:11:31.616Z,7.22
2023-05-13T08:13:58.590Z,7.57
2023-05-13T08:16:25.620Z,8.02
2023-05-13T08:18:52.663Z,6.97
2023-05-13T08:21:19.689Z,6.22
2023-05-13T08:23:46.669Z,6.63
2023-05-13T08:26:14.209Z,7.45
2023-05-13T08:28:42.475Z,6.93
2023-05-13T08:31:12.616Z,7.13
2023-05-13T08:33:42.001Z,7.53
2023-05-13T08:36:09.805Z,7.40
2023-05-13T08:38:36.828Z,6.97
2023-05-13T08:41:06.961Z,6.57
2023-05-13T08:43:34.642Z,6.88
2023-05-13T08:46:04.630Z,7.93
2023-05-13T08:48:32.535Z,7.15
2023-05-13T08:51:01.367Z,6.80
2023-05-13T08:53:28.925Z,6.38
2023-05-13T08:55:56.572Z,6.50
2023-05-13T08:58:25.205Z,5.45
2023-05-13T09:00:54.262Z,5.68
2023-05-13T09:03:21.806Z,5.47
2023-05-13T09:05:48.827Z,6.05
2023-05-13T09:08:16.039Z,5.80
2023-05-13T09:10:43.290Z,6.00
2023-05-13T09:13:12.242Z,5.53
2023-05-13T09:15:43.000Z,5.20
2023-05-13T09:18:10.190Z,6.88
2023-05-13T09:20:37.564Z,6.57
2023-05-13T09:23:07.893Z,7.50
2023-05-13T09:25:35.535Z,7.57
2023-05-13T09:28:04.788Z,7.85
2023-05-13T09:30:40.648Z,7.53
2023-05-13T09:33:12.279Z,8.52
2023-05-13T09:35:43.978Z,8.20
2023-05-13T09:38:15.959Z,7.95
2023-05-13T09:41:04.021Z,7.45
2023-05-13T09:43:34.703Z,6.95
2023-05-13T09:46:03.752Z,7.20
2023-05-13T09:48:33.722Z,6.93
2023-05-13T09:51:01.572Z,6.80
2023-05-13T09:53:29.258Z,6.85
2023-05-13T09:55:57.604Z,7.45
2023-05-13T09:58:29.280Z,7.68
2023-05-13T10:00:57.165Z,6.93
2023-05-13T10:03:24.709Z,7.07
2023-05-13T10:05:53.920Z,7.57
2023-05-13T10:08:22.364Z,7.78
2023-05-13T10:10:54.961Z,7.07
2023-05-13T10:13:24.653Z,7.40
2023-05-13T10:18:21.495Z,7.72
2023-05-13T10:20:53.668Z,7.80
2023-05-13T10:23:24.418Z,7.25
2023-05-13T10:25:54.661Z,7.40
2023-05-13T10:28:22.646Z,7.65
2023-05-13T10:30:51.758Z,6.72
2023-05-13T10:33:19.312Z,7.47
2023-05-13T10:36:22.838Z,6.80
2023-05-13T10:39:11.625Z,7.68
2023-05-13T10:42:06.273Z,6.93
2023-05-13T10:44:34.931Z,7.45
2023-05-13T10:47:04.758Z,6.68
2023-05-13T10:49:35.662Z,7.63
2023-05-13T10:52:14.395Z,7.35
2023-05-13T10:54:42.731Z,7.28
2023-05-13T10:57:10.691Z,6.65
2023-05-13T10:59:39.058Z,7.25
2023-05-13T11:02:25.372Z,6.60
2023-05-13T11:05:00.302Z,6.30
2023-05-13T11:07:30.526Z,5.95
2023-05-13T11:09:57.514Z,6.15
2023-05-13T11:12:24.495Z,6.07
2023-05-13T11:14:56.530Z,5.53
2023-05-13T11:17:23.666Z,7.35
2023-05-13T11:19:52.275Z,6.07
2023-05-13T11:22:26.961Z,5.50
2023-05-13T11:25:05.861Z,5.05
2023-05-13T11:27:42.907Z,4.95
2023-05-13T11:30:30.176Z,5.30
2023-05-13T11:32:59.741Z,5.78
2023-05-13T11:38:00.301Z,5.43
2023-05-13T11:40:35.509Z,6.03
2023-05-13T11:43:05.329Z,4.72
2023-05-13T11:45:32.618Z,6.28
2023-05-13T11:48:19.510Z,4.80
2023-05-13T11:50:46.850Z,4.93
2023-05-13T11:53:21.010Z,4.97
2023-05-13T11:55:48.407Z,5.43
2023-05-13T11:58:16.186Z,5.13
2023-05-13T12:00:45.242Z,5.10
2023-05-13T12:03:16.163Z,5.28
2023-05-13T12:05:44.828Z,4.47
2023-05-13T12:08:11.934Z,4.70
2023-05-13T12:10:45.599Z,5.05
2023-05-13T12:13:13.158Z,4.88
2023-05-13T12:15:40.658Z,5.05
2023-05-13T12:18:08.582Z,5.00
2023-05-13T12:20:35.981Z,4.88
2023-05-13T12:23:04.518Z,4.75
2023-05-13T12:25:47.049Z,7.82
2023-05-13T12:28:21.088Z,5.43
2023-05-13T12:30:58.915Z,5.93
2023-05-13T12:33:30.133Z,5.75
2023-05-13T12:36:21.903Z,4.85
2023-05-13T12:39:00.699Z,4.72
2023-05-13T12:41:38.433Z,5.10
2023-05-13T12:44:10.190Z,5.35
2023-05-13T12:46:38.036Z,4.72
2023-05-13T12:49:06.356Z,4.85
2023-05-13T12:51:34.276Z,4.85
2023-05-13T12:54:01.982Z,5.55
2023-05-13T12:56:29.068Z,5.63
2023-05-13T12:58:56.327Z,5.00
2023-05-13T13:01:23.756Z,5.65
2023-05-13T13:03:50.988Z,5.18
2023-05-13T13:06:18.715Z,5.68
2023-05-13T13:08:46.081Z,5.30
2023-05-13T13:11:19.046Z,5.68
2023-05-13T13:13:46.995Z,5.53
2023-05-13T13:16:14.415Z,7.00
2023-05-13T13:18:42.583Z,5.90
2023-05-13T13:21:10.549Z,7.20
2023-05-13T13:23:37.870Z,6.22
2023-05-13T13:26:04.905Z,7.03
2023-05-13T13:28:32.061Z,6.60
2023-05-13T13:31:00.239Z,6.55
2023-05-13T13:33:27.640Z,6.22
2023-05-13T13:35:54.877Z,6.47
2023-05-13T13:38:21.924Z,5.85
2023-05-13T13:40:48.886Z,5.95
2023-05-13T13:43:15.989Z,6.35
2023-05-13T13:45:42.969Z,6.38
2023-05-13T13:48:10.168Z,6.97
2023-05-13T13:50:37.343Z,5.82
2023-05-13T13:53:04.471Z,7.28
2023-05-13T13:55:31.413Z,6.07
2023-05-13T13:57:58.383Z,6.95
2023-05-13T14:00:25.319Z,6.60
2023-05-13T14:02:52.555Z,6.70
2023-05-13T14:05:19.964Z,6.18
2023-05-13T14:07:48.566Z,6.50
2023-05-13T14:10:15.604Z,6.90
2023-05-13T14:12:42.665Z,7.05
2023-05-13T14:15:09.947Z,6.55
2023-05-13T14:17:36.973Z,5.88
2023-05-13T14:20:04.447Z,5.80
2023-05-13T14:22:31.402Z,5.40
2023-05-13T14:24:59.415Z,6.32
2023-05-13T14:27:26.501Z,5.90
2023-05-13T14:29:53.497Z,5.95
2023-05-13T14:32:20.580Z,5.65
2023-05-13T14:34:47.596Z,5.65
2023-05-13T14:37:14.602Z,5.30
2023-05-13T14:39:41.580Z,6.13
2023-05-13T14:42:08.628Z,5.93
2023-05-13T14:44:35.597Z,5.78
2023-05-13T14:47:02.765Z,5.80
2023-05-13T14:49:30.047Z,6.57
2023-05-13T14:51:57.047Z,6.50
2023-05-13T14:54:24.003Z,5.97
2023-05-13T14:56:52.493Z,5.95
2023-05-13T14:59:19.634Z,5.90
2023-05-13T15:01:46.610Z,5.95
2023-05-13T15:04:13.558Z,5.70
2023-05-13T15:06:40.787Z,5.97
2023-05-13T15:09:07.735Z,6.00
2023-05-13T15:11:34.833Z,6.75
2023-05-13T15:14:02.332Z,6.88
2023-05-13T15:16:29.391Z,7.07
2023-05-13T15:18:56.447Z,6.30
2023-05-13T15:21:23.580Z,6.40
2023-05-13T15:23:50.538Z,5.88
2023-05-13T15:26:17.648Z,7.00
2023-05-13T15:28:44.647Z,6.22
2023-05-13T15:31:11.710Z,6.00
2023-05-13T15:33:38.915Z,5.75
2023-05-13T15:36:06.544Z,6.95
2023-05-13T15:38:33.545Z,4.97
2023-05-13T15:41:01.694Z,6.43
2023-05-13T15:43:31.196Z,5.93
2023-05-13T15:45:59.176Z,6.20
2023-05-13T15:48:27.004Z,6.00
2023-05-13T15:50:54.510Z,6.40
2023-05-13T15:53:21.466Z,5.78
2023-05-13T15:55:48.508Z,6.43
2023-05-13T15:58:15.553Z,7.43
2023-05-13T16:00:43.470Z,6.75
2023-05-13T16:03:10.681Z,7.63
2023-05-13T16:05:38.842Z,7.38
2023-05-13T16:08:06.005Z,8.80
2023-05-13T16:10:34.082Z,6.60
2023-05-13T16:13:02.762Z,8.45
2023-05-13T16:15:29.709Z,7.82
2023-05-13T16:17:56.951Z,8.75
2023-05-13T16:20:24.419Z,8.13
2023-05-13T16:22:51.744Z,7.70
2023-05-13T16:25:18.707Z,8.45
2023-05-13T16:27:45.719Z,7.80
2023-05-13T16:30:13.009Z,8.60
2023-05-13T16:32:40.174Z,9.20
2023-05-13T16:35:07.849Z,10.18
2023-05-13T16:37:37.564Z,8.57
2023-05-13T16:40:05.246Z,10.05
2023-05-13T16:42:32.168Z,9.65
2023-05-13T16:44:59.189Z,10.15
2023-05-13T16:47:26.169Z,10.98
2023-05-13T16:49:53.224Z,10.98
2023-05-13T16:52:20.202Z,10.75
2023-05-13T16:54:47.362Z,10.70
2023-05-13T16:57:17.934Z,12.00
2023-05-13T16:59:44.960Z,10.43
2023-05-13T17:02:12.044Z,12.27
2023-05-13T17:04:38.995Z,11.80
2023-05-13T17:07:06.603Z,11.73
2023-05-13T17:09:33.954Z,10.48
2023-05-13T17:12:00.940Z,9.95
2023-05-13T17:14:27.874Z,9.93
2023-05-13T17:16:54.935Z,9.65
2023-05-13T17:19:22.125Z,12.10
2023-05-13T17:21:49.023Z,10.15
2023-05-13T17:24:15.951Z,10.95
2023-05-13T17:26:42.868Z,10.98
2023-05-13T17:29:09.831Z,11.05
2023-05-13T17:31:36.962Z,10.25
2023-05-13T17:34:04.259Z,10.63
2023-05-13T17:36:32.859Z,10.45
2023-05-13T17:38:59.873Z,10.48
2023-05-13T17:41:26.931Z,10.23
2023-05-13T17:43:53.867Z,10.52
2023-05-13T17:46:21.252Z,11.13
2023-05-13T17:48:51.382Z,10.60
2023-05-13T17:51:20.343Z,11.43
2023-05-13T17:53:47.443Z,11.50
2023-05-13T17:56:14.469Z,11.48
2023-05-13T17:58:41.383Z,10.68
2023-05-13T18:01:08.353Z,11.90
2023-05-13T18:03:35.464Z,10.18
2023-05-13T18:06:02.543Z,11.27
2023-05-13T18:08:29.667Z,10.65
2023-05-13T18:10:56.641Z,10.63
2023-05-13T18:13:23.601Z,11.52
2023-05-13T18:15:50.773Z,11.52
2023-05-13T18:18:18.785Z,11.98
2023-05-13T18:20:45.755Z,11.77
2023-05-13T18:23:12.780Z,11.90
2023-05-13T18:25:48.763Z,11.68
2023-05-13T18:28:19.317Z,13.13
2023-05-13T18:30:46.327Z,12.32
2023-05-13T18:33:13.276Z,12.80
2023-05-13T18:35:40.589Z,12.43
2023-05-13T18:38:07.559Z,11.82
2023-05-13T18:40:34.430Z,12.10
2023-05-13T18:43:01.416Z,12.48
2023-05-13T18:45:28.394Z,12.50
2023-05-13T18:47:55.484Z,11.82
2023-05-13T18:50:22.880Z,12.60
2023-05-13T18:52:50.026Z,12.50
2023-05-13T18:55:17.064Z,12.88
2023-05-13T18:57:43.989Z,12.07
2023-05-13T19:00:11.372Z,13.15
2023-05-13T19:02:38.511Z,13.60
2023-05-13T19:05:06.053Z,13.05
2023-05-13T19:07:32.975Z,13.45
2023-05-13T19:10:00.060Z,13.90
2023-05-13T19:12:28.236Z,13.43
2023-05-13T19:14:55.125Z,13.45
2023-05-13T19:17:22.141Z,15.43
2023-05-13T19:19:49.194Z,13.80
2023-05-13T19:22:16.135Z,14.55
2023-05-13T19:24:43.077Z,14.85
2023-05-13T19:27:10.540Z,14.95
2023-05-13T19:29:37.455Z,14.63
2023-05-13T19:32:04.544Z,14.93
2023-05-13T19:34:31.475Z,13.40
2023-05-13T19:36:58.569Z,14.43
2023-05-13T19:39:25.867Z,13.63
2023-05-13T19:41:52.924Z,13.75
2023-05-13T19:44:19.845Z,15.48
2023-05-13T19:46:47.317Z,13.15
2023-05-13T19:49:14.351Z,15.15
2023-05-13T19:51:42.111Z,15.52
2023-05-13T19:54:11.102Z,15.00
2023-05-13T19:56:38.500Z,15.23
2023-05-13T19:59:06.578Z,14.43
2023-05-13T20:01:33.680Z,15.57
2023-05-13T20:04:00.753Z,15.30
2023-05-13T20:06:27.944Z,15.80
2023-05-13T20:08:54.900Z,14.90
2023-05-13T20:11:21.952Z,15.07
2023-05-13T20:13:48.856Z,15.30
2023-05-13T20:16:15.839Z,15.88
2023-05-13T20:18:43.197Z,14.43
2023-05-13T20:21:10.250Z,14.25
2023-05-13T20:23:37.152Z,14.00
2023-05-13T20:26:04.119Z,14.57
2023-05-13T20:28:31.050Z,14.48
2023-05-13T20:30:58.187Z,15.30
2023-05-13T20:33:25.322Z,15.27
2023-05-13T20:35:52.752Z,15.57
2023-05-13T20:38:21.356Z,14.82
2023-05-13T20:40:48.390Z,16.25
2023-05-13T20:43:18.689Z,17.27
2023-05-13T20:45:45.681Z,15.15
2023-05-13T20:48:13.810Z,16.50
2023-05-13T20:50:40.835Z,15.85
2023-05-13T20:53:07.940Z,16.10
2023-05-13T20:55:34.928Z,17.55
2023-05-13T20:58:01.831Z,18.95
2023-05-13T21:00:28.831Z,17.05
2023-05-13T21:02:56.052Z,17.48
2023-05-13T21:05:23.254Z,18.45
2023-05-13T21:07:50.302Z,17.52
2023-05-13T21:10:17.676Z,19.08
2023-05-13T21:12:47.920Z,17.80
2023-05-13T21:15:15.229Z,18.80
2023-05-13T21:17:42.434Z,18.48
2023-05-13T21:20:11.578Z,20.15
2023-05-13T21:22:38.578Z,19.70
2023-05-13T21:25:06.111Z,20.90
2023-05-13T21:27:33.020Z,20.15
2023-05-13T21:29:59.967Z,19.80
2023-05-13T21:32:27.337Z,20.92
2023-05-13T21:34:55.849Z,20.85
2023-05-13T21:37:23.440Z,21.38
2023-05-13T21:39:50.573Z,22.10
2023-05-13T21:42:17.635Z,22.30
2023-05-13T21:44:44.561Z,20.40
2023-05-13T21:47:11.471Z,22.23
2023-05-13T21:49:38.453Z,21.95
2023-05-13T21:52:05.898Z,23.48
2023-05-13T21:54:32.868Z,22.33
2023-05-13T21:56:59.801Z,22.38
2023-05-13T21:59:26.900Z,22.85
2023-05-13T22:01:54.028Z,23.27
2023-05-13T22:04:21.110Z,23.02
2023-05-13T22:06:47.979Z,23.67
2023-05-13T22:09:14.964Z,24.40
2023-05-13T22:11:41.861Z,24.02
2023-05-13T22:14:08.849Z,24.63
2023-05-13T22:16:36.014Z,23.55
2023-05-13T22:19:04.707Z,24.85
2023-05-13T22:21:32.626Z,24.52
2023-05-13T22:23:59.734Z,24.55
2023-05-13T22:26:26.642Z,23.98
2023-05-13T22:28:53.672Z,25.95
2023-05-13T22:31:20.669Z,23.67
2023-05-13T22:33:59.517Z,25.67
2023-05-13T22:36:26.528Z,25.55
2023-05-13T22:38:53.444Z,26.58
2023-05-13T22:41:23.873Z,26.00
2023-05-13T22:43:50.897Z,23.98
2023-05-13T22:46:17.931Z,26.15
2023-05-13T22:48:45.017Z,24.48
2023-05-13T22:51:11.929Z,25.70
2023-05-13T22:53:41.056Z,23.92
2023-05-13T22:56:08.285Z,27.08
2023-05-13T22:58:35.141Z,24.13
2023-05-13T23:01:02.112Z,25.42
2023-05-13T23:03:29.105Z,24.90
2023-05-13T23:05:57.029Z,25.67
2023-05-13T23:08:24.076Z,26.17
2023-05-13T23:10:51.068Z,25.38
2023-05-13T23:13:18.061Z,26.92
2023-05-13T23:15:45.080Z,26.73
2023-05-13T23:18:12.067Z,25.55
2023-05-13T23:20:39.023Z,26.63
2023-05-13T23:23:05.945Z,26.50
2023-05-13T23:25:33.069Z,25.77
2023-05-13T23:28:00.001Z,24.75
2023-05-13T23:30:26.962Z,26.45
2023-05-13T23:32:54.028Z,26.52
2023-05-13T23:35:21.004Z,26.52
2023-05-13T23:37:47.906Z,25.20
2023-05-13T23:40:15.096Z,23.27
2023-05-13T23:42:43.300Z,23.98
2023-05-13T23:45:10.791Z,24.10
2023-05-13T23:47:37.745Z,22.77
2023-05-13T23:50:05.850Z,22.92
2023-05-13T23:52:32.818Z,23.45
2023-05-13T23:55:02.180Z,22.80
2023-05-13T23:57:29.146Z,22.13
2023-05-13T23:59:56.161Z,22.63
